Terminal Aerodrome Forecast
Issued by NWS Louisville, KY

Home | Current Version | Previous Version | Text Only | Print | Product List | Glossary On
Versions: 1 2 3 4 5 6 7 8 9 10 11 12 13 14 15 16 17 18 19 20 21 22 23
551
FTUS43 KLMK 302320
TAFBWG
TAF
KBWG 302320Z 3100/3124 22008KT P6SM VCTS BKN040CB
     FM310100 VRB03KT P6SM SCT040
     FM310700 00000KT 4SM BR SCT250
      TEMPO 3110/3113 1SM BR
     FM311400 24005KT P6SM BKN015
     FM311600 24005KT P6SM BKN025=

USA.gov is the U.S. government's official web portal to all federal, state and local government web resources and services.